Shanghai Pudong International Airport (PVG/ZSPD)



No chart available
Flight Aircraft Arriving
CPX33
PANC - Ted Stevens Anchorage International Airport
United StatesAlaska Anchorage, Alaska
CPX517
RKSI - Incheon International Airport
Republic Of Korea Seoul, Republic Of Korea
CPX590
RJAA - Tokyo-Narita International Airport
Japan Tokyo, Japan
Flight Aircraft Departing
CPX34
PANC - Ted Stevens Anchorage International Airport
United StatesAlaska Anchorage, Alaska
CPX555
RKSI - Incheon International Airport
Republic Of Korea Seoul, Republic Of Korea


Airport Information
Location: Shanghai,
Coordinates: 31.1434 / 121.805
Field Elevation: 13ft
Longest Runway: 13,163ft
ILS Approaches: YES
Landing Fees: $5,865 per flight
Jet A Price: $0.55/lbs

Current Weather
METAR: ZSPD 272230Z 19006MPS CAVOK 22/17 Q1005 NOSIG
TAF: TAF ZSPD 271502Z 2718/2818 15004MPS 6000 BKN015 TX23/2806Z TN19/2721Z

Recent Arrivals
Date Flight Type Depart
05/25/2022 CPX34 B744 Ted Stevens Anchorage Intl (PANC)
04/26/2022 CPX555 B744 Incheon Intl (RKSI)
02/09/2022 CPX34 B763 Ted Stevens Anchorage Intl (PANC)
02/03/2022 CPX34 B744 Ted Stevens Anchorage Intl (PANC)
11/06/2021 CPX34 B763 Ted Stevens Anchorage Intl (PANC)
Recent Departures
Date Flight Type Arrive
04/26/2022 CPX33 B744 Ted Stevens Anchorage Intl (PANC)
02/26/2022 CPX33 B744 Ted Stevens Anchorage Intl (PANC)
02/10/2022 CPX590 B763 Tokyo-Narita Intl (RJAA)
11/06/2021 CPX990 B763 Tokyo-Narita Intl (RJAA)